createdAt,value
2022-10-21T00:01:50.765Z,4.57
2022-10-21T00:04:23.938Z,4.55
2022-10-21T00:06:56.556Z,4.49
2022-10-21T00:09:29.896Z,4.44
2022-10-21T00:12:02.340Z,4.37
2022-10-21T00:14:36.045Z,4.32
2022-10-21T00:17:10.416Z,4.25
2022-10-21T00:19:43.161Z,4.21
2022-10-21T00:22:16.625Z,4.23
2022-10-21T00:24:49.214Z,4.22
2022-10-21T00:27:21.709Z,4.21
2022-10-21T00:29:54.094Z,4.16
2022-10-21T00:32:28.164Z,4.16
2022-10-21T00:35:01.121Z,4.15
2022-10-21T00:37:34.352Z,4.14
2022-10-21T00:40:08.287Z,4.10
2022-10-21T00:42:45.530Z,4.05
2022-10-21T00:45:24.023Z,4.03
2022-10-21T00:48:06.218Z,3.98
2022-10-21T00:51:08.997Z,3.95
2022-10-21T00:53:45.494Z,3.90
2022-10-21T00:56:27.803Z,3.85
2022-10-21T00:59:01.725Z,3.79
2022-10-21T01:01:34.808Z,3.73
2022-10-21T01:04:07.844Z,3.69
2022-10-21T01:06:40.742Z,3.65
2022-10-21T01:09:13.619Z,3.63
2022-10-21T01:11:47.600Z,3.61
2022-10-21T01:14:40.736Z,3.58
2022-10-21T01:17:44.165Z,3.54
2022-10-21T01:21:01.775Z,3.53
2022-10-21T01:23:56.073Z,3.52
2022-10-21T01:27:05.369Z,3.44
2022-10-21T01:30:01.830Z,3.42
2022-10-21T01:32:51.237Z,3.40
2022-10-21T01:35:33.859Z,3.40
2022-10-21T01:38:34.224Z,3.42
2022-10-21T01:41:23.830Z,3.42
2022-10-21T01:44:25.433Z,3.42
2022-10-21T01:47:04.557Z,3.43
2022-10-21T01:49:56.694Z,3.43
2022-10-21T01:52:30.215Z,3.39
2022-10-21T01:55:06.847Z,3.36
2022-10-21T01:57:43.652Z,3.38
2022-10-21T02:00:18.072Z,3.34
2022-10-21T02:02:51.064Z,3.30
2022-10-21T02:05:27.595Z,3.28
2022-10-21T02:08:01.124Z,3.27
2022-10-21T02:10:41.331Z,3.23
2022-10-21T02:13:18.209Z,3.20
2022-10-21T02:15:52.209Z,3.17
2022-10-21T02:18:26.640Z,3.18
2022-10-21T02:21:10.194Z,3.19
2022-10-21T02:23:56.480Z,3.16
2022-10-21T02:26:30.352Z,3.16
2022-10-21T02:29:03.629Z,3.17
2022-10-21T02:31:52.843Z,3.23
2022-10-21T02:34:42.380Z,3.28
2022-10-21T02:37:24.289Z,3.25
2022-10-21T02:40:04.790Z,3.20
2022-10-21T02:42:41.751Z,3.16
2022-10-21T02:45:14.343Z,3.12
2022-10-21T02:47:48.502Z,3.09
2022-10-21T02:50:21.330Z,3.08
2022-10-21T02:52:54.697Z,3.05
2022-10-21T02:55:28.538Z,3.06
2022-10-21T02:58:02.686Z,3.09
2022-10-21T03:00:35.713Z,3.09
2022-10-21T03:03:09.067Z,3.06
2022-10-21T03:05:43.252Z,3.06
2022-10-21T03:08:17.156Z,3.02
2022-10-21T03:10:53.572Z,3.02
2022-10-21T03:13:26.683Z,2.99
2022-10-21T03:16:00.098Z,2.99
2022-10-21T03:18:33.575Z,2.99
2022-10-21T03:21:07.726Z,2.96
2022-10-21T03:23:40.675Z,2.93
2022-10-21T03:26:13.421Z,2.92
2022-10-21T03:28:46.869Z,2.92
2022-10-21T03:31:19.827Z,2.90
2022-10-21T03:33:53.465Z,2.88
2022-10-21T03:36:27.150Z,2.86
2022-10-21T03:38:59.975Z,2.85
2022-10-21T03:41:33.063Z,2.86
2022-10-21T03:44:05.740Z,2.86
2022-10-21T03:46:39.751Z,2.86
2022-10-21T03:49:21.060Z,2.88
2022-10-21T03:51:51.872Z,2.91
2022-10-21T03:54:24.589Z,2.93
2022-10-21T03:56:58.933Z,2.95
2022-10-21T03:59:31.654Z,2.95
2022-10-21T04:02:04.976Z,2.94
2022-10-21T04:04:38.610Z,2.92
2022-10-21T04:07:12.976Z,2.92
2022-10-21T04:09:47.276Z,2.92
2022-10-21T04:12:20.029Z,2.92
2022-10-21T04:14:55.732Z,2.91
2022-10-21T04:17:28.914Z,2.91
2022-10-21T04:20:05.720Z,2.90
2022-10-21T04:22:39.542Z,2.91
2022-10-21T04:25:12.472Z,2.90
2022-10-21T04:27:45.696Z,2.88
2022-10-21T04:30:18.478Z,2.89
2022-10-21T04:32:54.780Z,2.88
2022-10-21T04:35:28.094Z,2.90
2022-10-21T04:38:00.951Z,2.93
2022-10-21T04:40:34.541Z,2.97
2022-10-21T04:43:07.344Z,3.01
2022-10-21T04:45:43.718Z,3.07
2022-10-21T04:48:16.687Z,3.11
2022-10-21T04:50:54.276Z,3.17
2022-10-21T04:53:27.157Z,3.25
2022-10-21T04:56:01.248Z,3.29
2022-10-21T04:58:35.145Z,3.30
2022-10-21T05:01:08.266Z,3.31
2022-10-21T05:03:41.586Z,3.35
2022-10-21T05:06:14.541Z,3.36
2022-10-21T05:08:47.747Z,3.39
2022-10-21T05:11:21.523Z,3.40
2022-10-21T05:13:55.958Z,3.42
2022-10-21T05:16:29.195Z,3.46
2022-10-21T05:19:02.482Z,3.53
2022-10-21T05:24:12.214Z,3.68
2022-10-21T05:26:44.971Z,3.75
2022-10-21T05:29:19.247Z,3.85
2022-10-21T05:31:53.514Z,3.95
2022-10-21T05:34:26.407Z,4.05
2022-10-21T05:36:59.725Z,4.20
2022-10-21T05:39:32.398Z,4.39
2022-10-21T05:42:05.466Z,4.57
2022-10-21T05:44:38.143Z,4.76
2022-10-21T05:47:11.581Z,4.93
2022-10-21T05:49:45.177Z,5.18
2022-10-21T05:52:18.229Z,5.47
2022-10-21T05:54:51.597Z,5.72
2022-10-21T05:57:25.613Z,5.84
2022-10-21T05:59:58.887Z,5.92
2022-10-21T06:02:33.738Z,5.95
2022-10-21T06:05:06.363Z,5.94
2022-10-21T06:07:41.240Z,5.92
2022-10-21T06:10:14.465Z,5.89
2022-10-21T06:12:48.630Z,5.88
2022-10-21T06:15:24.258Z,5.84
2022-10-21T06:17:58.208Z,5.85
2022-10-21T06:20:31.934Z,5.85
2022-10-21T06:23:05.340Z,5.85
2022-10-21T06:25:39.102Z,5.87
2022-10-21T06:28:12.432Z,5.92
2022-10-21T06:30:45.497Z,6.01
2022-10-21T06:33:19.625Z,6.07
2022-10-21T06:35:52.640Z,6.13
2022-10-21T06:38:27.480Z,6.21
2022-10-21T06:41:12.414Z,6.32
2022-10-21T06:43:44.373Z,6.39
2022-10-21T06:46:18.779Z,6.44
2022-10-21T06:48:51.967Z,6.51
2022-10-21T06:51:46.068Z,6.62
2022-10-21T06:54:18.769Z,6.71
2022-10-21T06:56:53.427Z,6.80
2022-10-21T06:59:26.154Z,6.89
2022-10-21T07:02:00.710Z,6.98
2022-10-21T07:04:32.971Z,7.09
2022-10-21T07:07:06.087Z,7.20
2022-10-21T07:09:38.951Z,7.24
2022-10-21T07:12:11.722Z,7.27
2022-10-21T07:14:44.660Z,7.33
2022-10-21T07:17:18.149Z,7.44
2022-10-21T07:19:51.282Z,7.58
2022-10-21T07:22:25.246Z,7.68
2022-10-21T07:24:58.458Z,7.78
2022-10-21T07:27:32.209Z,7.87
2022-10-21T07:30:05.858Z,7.89
2022-10-21T07:32:38.782Z,7.88
2022-10-21T07:35:11.834Z,7.85
2022-10-21T07:37:44.630Z,7.84
2022-10-21T07:40:17.377Z,7.86
2022-10-21T07:42:50.115Z,7.88
2022-10-21T07:45:22.850Z,7.90
2022-10-21T07:47:55.610Z,7.92
2022-10-21T07:50:28.958Z,7.87
2022-10-21T07:53:12.030Z,7.84
2022-10-21T07:55:38.486Z,7.84
2022-10-21T07:58:11.369Z,7.81
2022-10-21T08:00:47.136Z,7.82
2022-10-21T08:03:20.938Z,7.77
2022-10-21T08:05:58.232Z,7.55
2022-10-21T08:08:31.786Z,7.45
2022-10-21T08:11:05.940Z,7.45
2022-10-21T08:13:41.780Z,7.49
2022-10-21T08:16:14.956Z,7.60
2022-10-21T08:18:49.395Z,7.68
2022-10-21T08:21:22.070Z,7.74
2022-10-21T08:23:55.522Z,7.83
2022-10-21T08:26:28.171Z,8.02
2022-10-21T08:29:01.927Z,8.15
2022-10-21T08:31:36.218Z,8.21
2022-10-21T08:34:08.887Z,8.16
2022-10-21T08:36:43.170Z,8.25
2022-10-21T08:39:17.542Z,8.32
2022-10-21T08:42:09.407Z,8.45
2022-10-21T08:44:50.155Z,8.61
2022-10-21T08:47:43.561Z,8.82
2022-10-21T08:50:19.961Z,8.97
2022-10-21T08:53:09.939Z,9.06
2022-10-21T08:55:45.237Z,9.02
2022-10-21T08:58:23.675Z,9.03
2022-10-21T09:01:26.724Z,9.05
2022-10-21T09:04:13.555Z,9.12
2022-10-21T09:07:00.522Z,9.11
2022-10-21T09:09:47.781Z,9.15
2022-10-21T09:12:38.067Z,9.23
2022-10-21T09:15:24.899Z,9.29
2022-10-21T09:18:19.455Z,9.30
2022-10-21T09:21:22.035Z,9.31
2022-10-21T09:24:10.029Z,9.41
2022-10-21T09:26:49.015Z,9.51
2022-10-21T09:29:41.293Z,9.55
2022-10-21T09:32:21.645Z,9.57
2022-10-21T09:35:33.817Z,9.60
2022-10-21T09:38:15.131Z,9.60
2022-10-21T09:40:49.549Z,9.61
2022-10-21T09:43:25.478Z,9.58
2022-10-21T09:45:58.762Z,9.56
2022-10-21T09:48:53.956Z,9.55
2022-10-21T09:51:30.237Z,9.52
2022-10-21T09:54:21.201Z,9.51
2022-10-21T09:57:08.299Z,9.43
2022-10-21T09:59:56.350Z,9.37
2022-10-21T10:02:41.812Z,9.37
2022-10-21T10:05:47.756Z,9.49
2022-10-21T10:08:48.959Z,9.55
2022-10-21T10:11:25.392Z,9.56
2022-10-21T10:13:59.317Z,9.62
2022-10-21T10:16:34.186Z,9.66
2022-10-21T10:19:22.809Z,9.72
2022-10-21T10:22:16.342Z,9.87
2022-10-21T10:24:51.190Z,10.09
2022-10-21T10:27:26.065Z,10.29
2022-10-21T10:30:00.184Z,10.44
2022-10-21T10:32:36.206Z,10.57
2022-10-21T10:35:12.368Z,10.58
2022-10-21T10:37:48.390Z,10.51
2022-10-21T10:40:33.114Z,10.47
2022-10-21T10:43:16.274Z,10.41
2022-10-21T10:46:09.985Z,10.40
2022-10-21T10:48:46.215Z,10.43
2022-10-21T10:51:30.147Z,10.39
2022-10-21T10:54:13.106Z,10.29
2022-10-21T10:56:50.762Z,10.26
2022-10-21T10:59:36.479Z,10.33
2022-10-21T11:02:18.630Z,10.38
2022-10-21T11:05:35.926Z,10.44
2022-10-21T11:08:36.396Z,10.54
2022-10-21T11:11:30.182Z,10.62
2022-10-21T11:14:04.089Z,10.65
2022-10-21T11:17:06.953Z,10.64
2022-10-21T11:20:05.506Z,10.63
2022-10-21T11:23:12.231Z,10.60
2022-10-21T11:25:55.362Z,10.61
2022-10-21T11:28:48.007Z,10.59
2022-10-21T11:31:28.398Z,10.61
2022-10-21T11:34:19.070Z,10.66
2022-10-21T11:37:17.621Z,10.74
2022-10-21T11:40:16.127Z,10.84
2022-10-21T11:42:53.149Z,11.00
2022-10-21T11:45:59.935Z,11.15
2022-10-21T11:48:54.827Z,11.26
2022-10-21T11:52:11.195Z,11.26
2022-10-21T11:55:08.908Z,11.17
2022-10-21T11:57:58.598Z,11.11
2022-10-21T12:00:34.573Z,11.11
2022-10-21T12:03:47.638Z,11.07
2022-10-21T12:06:43.170Z,11.04
2022-10-21T12:09:46.973Z,10.97
2022-10-21T12:12:27.870Z,10.92
2022-10-21T12:15:03.500Z,10.83
2022-10-21T12:20:24.379Z,10.72
2022-10-21T12:23:03.498Z,10.65
2022-10-21T12:25:52.719Z,10.58
2022-10-21T12:28:56.266Z,10.54
2022-10-21T12:32:06.519Z,10.45
2022-10-21T12:34:39.179Z,10.39
2022-10-21T12:37:42.283Z,10.29
2022-10-21T12:40:29.476Z,10.25
2022-10-21T12:43:09.744Z,10.21
2022-10-21T12:45:44.333Z,10.14
2022-10-21T12:48:41.011Z,10.12
2022-10-21T12:51:25.059Z,10.10
2022-10-21T12:54:09.171Z,10.09
2022-10-21T12:56:51.243Z,10.10
2022-10-21T12:59:52.338Z,10.13
2022-10-21T13:02:28.704Z,10.13
2022-10-21T13:05:01.505Z,10.09
2022-10-21T13:07:35.472Z,10.08
2022-10-21T13:10:13.036Z,10.08
2022-10-21T13:12:47.299Z,10.07
2022-10-21T13:15:35.235Z,10.08
2022-10-21T13:18:09.788Z,10.09
2022-10-21T13:20:46.608Z,10.08
2022-10-21T13:23:32.909Z,10.01
2022-10-21T13:26:19.539Z,9.93
2022-10-21T13:29:11.502Z,9.84
2022-10-21T13:31:44.472Z,9.77
2022-10-21T13:34:29.685Z,9.71
2022-10-21T13:37:03.118Z,9.68
2022-10-21T13:39:37.291Z,9.62
2022-10-21T13:42:16.738Z,9.60
2022-10-21T13:44:54.275Z,9.57
2022-10-21T13:47:39.107Z,9.53
2022-10-21T13:50:20.371Z,9.47
2022-10-21T13:52:56.713Z,9.43
2022-10-21T13:55:30.314Z,9.39
2022-10-21T13:58:05.505Z,9.37
2022-10-21T14:00:39.118Z,9.33
2022-10-21T14:03:16.711Z,9.29
2022-10-21T14:06:00.506Z,9.26
2022-10-21T14:08:37.869Z,9.23
2022-10-21T14:11:22.496Z,9.22
2022-10-21T14:13:56.022Z,9.21
2022-10-21T14:16:40.813Z,9.18
2022-10-21T14:19:32.328Z,9.17
2022-10-21T14:22:08.666Z,9.16
2022-10-21T14:25:06.207Z,9.15
2022-10-21T14:27:46.098Z,9.15
2022-10-21T14:30:23.105Z,9.12
2022-10-21T14:32:57.340Z,9.11
2022-10-21T14:35:31.691Z,9.08
2022-10-21T14:38:05.138Z,9.06
2022-10-21T14:40:44.851Z,9.04
2022-10-21T14:43:24.292Z,8.99
2022-10-21T14:45:58.367Z,8.92
2022-10-21T14:48:40.088Z,8.86
2022-10-21T14:51:20.415Z,8.78
2022-10-21T14:53:58.582Z,8.71
2022-10-21T14:56:41.608Z,8.62
2022-10-21T14:59:24.211Z,8.55
2022-10-21T15:01:58.740Z,8.45
2022-10-21T15:04:59.971Z,8.37
2022-10-21T15:07:40.834Z,8.31
2022-10-21T15:10:20.364Z,8.25
2022-10-21T15:12:55.728Z,8.18
2022-10-21T15:15:53.456Z,8.11
2022-10-21T15:18:33.311Z,8.06
2022-10-21T15:21:16.756Z,7.97
2022-10-21T15:23:57.941Z,7.91
2022-10-21T15:26:40.414Z,7.84
2022-10-21T15:29:29.905Z,7.81
2022-10-21T15:32:03.306Z,7.76
2022-10-21T15:34:37.585Z,7.72
2022-10-21T15:37:12.521Z,7.67
2022-10-21T15:39:46.324Z,7.62
2022-10-21T15:42:21.668Z,7.59
2022-10-21T15:44:55.673Z,7.55
2022-10-21T15:47:29.036Z,7.52
2022-10-21T15:50:02.012Z,7.49
2022-10-21T15:52:36.712Z,7.46
2022-10-21T15:55:13.349Z,7.43
2022-10-21T15:57:46.737Z,7.40
2022-10-21T16:00:23.455Z,7.38
2022-10-21T16:02:57.811Z,7.35
2022-10-21T16:05:30.890Z,7.33
2022-10-21T16:08:04.037Z,7.30
2022-10-21T16:10:41.501Z,7.30
2022-10-21T16:13:19.960Z,7.26
2022-10-21T16:15:54.843Z,7.25
2022-10-21T16:18:29.124Z,7.23
2022-10-21T16:21:06.213Z,7.21
2022-10-21T16:23:41.212Z,7.21
2022-10-21T16:26:35.133Z,7.22
2022-10-21T16:29:10.211Z,7.18
2022-10-21T16:31:43.913Z,7.17
2022-10-21T16:34:17.811Z,7.17
2022-10-21T16:36:50.806Z,7.14
2022-10-21T16:39:26.211Z,7.14
2022-10-21T16:42:02.309Z,7.14
2022-10-21T16:44:37.955Z,7.18
2022-10-21T16:47:18.443Z,7.18
2022-10-21T16:49:52.782Z,7.18
2022-10-21T16:52:27.787Z,7.15
2022-10-21T16:55:02.359Z,7.13
2022-10-21T16:57:38.970Z,7.10
2022-10-21T17:00:32.419Z,7.04
2022-10-21T17:03:11.248Z,7.01
2022-10-21T17:05:47.561Z,7.02
2022-10-21T17:08:24.027Z,7.03
2022-10-21T17:10:59.388Z,7.00
2022-10-21T17:13:33.899Z,6.99
2022-10-21T17:16:09.425Z,6.98
2022-10-21T17:18:47.698Z,6.95
2022-10-21T17:21:27.851Z,6.94
2022-10-21T17:24:05.805Z,6.95
2022-10-21T17:26:44.144Z,6.96
2022-10-21T17:29:19.189Z,6.95
2022-10-21T17:31:56.205Z,6.94
2022-10-21T17:34:34.847Z,6.93
2022-10-21T17:37:18.055Z,6.93
2022-10-21T17:40:02.904Z,6.90
2022-10-21T17:42:40.497Z,6.89
2022-10-21T17:45:17.531Z,6.87
2022-10-21T17:47:54.944Z,6.83
2022-10-21T17:50:33.581Z,6.82
2022-10-21T17:53:12.748Z,6.81
2022-10-21T17:55:46.136Z,6.78
2022-10-21T17:58:29.139Z,6.75
2022-10-21T18:01:06.072Z,6.72
2022-10-21T18:06:43.559Z,6.70
2022-10-21T18:09:24.714Z,6.69
2022-10-21T18:12:04.570Z,6.70
2022-10-21T18:14:40.884Z,6.68
2022-10-21T18:17:16.518Z,6.68
2022-10-21T18:20:09.091Z,6.69
2022-10-21T18:22:46.846Z,6.70
2022-10-21T18:25:21.783Z,6.68
2022-10-21T18:27:58.485Z,6.65
2022-10-21T18:30:35.669Z,6.64
2022-10-21T18:33:15.370Z,6.67
2022-10-21T18:35:55.815Z,6.66
2022-10-21T18:38:29.041Z,6.62
2022-10-21T18:41:25.943Z,6.58
2022-10-21T18:44:12.828Z,6.53
2022-10-21T18:46:50.122Z,6.45
2022-10-21T18:49:28.498Z,6.43
2022-10-21T18:52:02.862Z,6.41
2022-10-21T18:54:40.750Z,6.38
2022-10-21T18:57:18.015Z,6.41
2022-10-21T18:59:57.368Z,6.43
2022-10-21T19:02:30.392Z,6.43
2022-10-21T19:05:05.462Z,6.42
2022-10-21T19:07:42.779Z,6.40
2022-10-21T19:10:18.708Z,6.38
2022-10-21T19:12:53.109Z,6.36
2022-10-21T19:15:27.998Z,6.34
2022-10-21T19:18:02.449Z,6.34
2022-10-21T19:20:39.510Z,6.35
2022-10-21T19:23:24.310Z,6.35
2022-10-21T19:26:00.078Z,6.35
2022-10-21T19:28:35.148Z,6.33
2022-10-21T19:31:12.991Z,6.33
2022-10-21T19:33:48.983Z,6.32
2022-10-21T19:36:21.730Z,6.30
2022-10-21T19:38:57.795Z,6.29
2022-10-21T19:41:30.607Z,6.26
2022-10-21T19:44:05.232Z,6.24
2022-10-21T19:46:38.633Z,6.20
2022-10-21T19:49:14.672Z,6.19
2022-10-21T19:51:48.870Z,6.18
2022-10-21T19:54:22.461Z,6.18
2022-10-21T19:56:57.503Z,6.18
2022-10-21T19:59:30.335Z,6.17
2022-10-21T20:02:03.078Z,6.16
2022-10-21T20:04:38.427Z,6.16
2022-10-21T20:07:12.074Z,6.14
2022-10-21T20:09:44.839Z,6.12
2022-10-21T20:12:17.451Z,6.11
2022-10-21T20:14:54.123Z,6.09
2022-10-21T20:20:07.330Z,6.06
2022-10-21T20:22:42.362Z,6.07
2022-10-21T20:25:15.542Z,6.05
2022-10-21T20:27:48.467Z,6.04
2022-10-21T20:30:21.610Z,6.01
2022-10-21T20:32:58.554Z,6.03
2022-10-21T20:35:33.923Z,6.02
2022-10-21T20:38:06.843Z,6.03
2022-10-21T20:40:41.051Z,6.04
2022-10-21T20:43:13.654Z,6.02
2022-10-21T20:45:48.447Z,6.02
2022-10-21T20:48:21.090Z,6.00
2022-10-21T20:51:08.281Z,5.99
2022-10-21T20:53:49.789Z,5.98
2022-10-21T20:56:23.017Z,5.99
2022-10-21T20:58:57.086Z,5.98
2022-10-21T21:01:54.555Z,5.97
2022-10-21T21:04:27.291Z,5.98
2022-10-21T21:07:00.397Z,5.99
2022-10-21T21:09:57.472Z,6.01
2022-10-21T21:12:10.124Z,5.99
2022-10-21T21:14:43.931Z,5.98
2022-10-21T21:17:17.167Z,5.95
2022-10-21T21:19:50.819Z,5.94
2022-10-21T21:22:23.841Z,5.93
2022-10-21T21:24:59.668Z,5.88
2022-10-21T21:27:35.363Z,5.88
2022-10-21T21:30:10.747Z,5.83
2022-10-21T21:32:45.331Z,5.84
2022-10-21T21:35:18.255Z,5.80
2022-10-21T21:37:52.127Z,5.82
2022-10-21T21:40:24.905Z,5.78
2022-10-21T21:42:58.581Z,5.72
2022-10-21T21:45:32.480Z,5.71
2022-10-21T21:48:05.424Z,5.68
2022-10-21T21:50:40.219Z,5.67
2022-10-21T21:53:16.912Z,5.66
2022-10-21T21:55:49.955Z,5.65
2022-10-21T21:58:22.593Z,5.64
2022-10-21T22:00:55.608Z,5.64
2022-10-21T22:03:31.348Z,5.62
2022-10-21T22:06:05.958Z,5.61
2022-10-21T22:08:42.149Z,5.61
2022-10-21T22:11:17.735Z,5.60
2022-10-21T22:13:53.576Z,5.57
2022-10-21T22:16:28.269Z,5.54
2022-10-21T22:19:02.241Z,5.52
2022-10-21T22:21:35.415Z,5.51
2022-10-21T22:24:08.131Z,5.49
2022-10-21T22:26:41.802Z,5.48
2022-10-21T22:29:16.086Z,5.48
2022-10-21T22:31:48.755Z,5.47
2022-10-21T22:34:24.141Z,5.44
2022-10-21T22:36:56.302Z,5.43
2022-10-21T22:39:29.057Z,5.44
2022-10-21T22:42:03.095Z,5.45
2022-10-21T22:44:37.455Z,5.46
2022-10-21T22:47:10.507Z,5.48
2022-10-21T22:49:44.375Z,5.49
2022-10-21T22:52:17.266Z,5.47
2022-10-21T22:54:50.732Z,5.47
2022-10-21T22:57:24.844Z,5.45
2022-10-21T23:00:00.266Z,5.47
2022-10-21T23:02:35.824Z,5.46
2022-10-21T23:05:09.834Z,5.45
2022-10-21T23:07:42.877Z,5.44
2022-10-21T23:10:17.431Z,5.45
2022-10-21T23:12:50.480Z,5.47
2022-10-21T23:15:23.065Z,5.47
2022-10-21T23:17:56.409Z,5.44
2022-10-21T23:20:50.913Z,5.42
2022-10-21T23:23:28.018Z,5.41
2022-10-21T23:26:03.304Z,5.41
2022-10-21T23:28:37.931Z,5.40
2022-10-21T23:31:11.975Z,5.41
2022-10-21T23:33:45.338Z,5.43
2022-10-21T23:36:18.557Z,5.45
2022-10-21T23:38:59.123Z,5.47
2022-10-21T23:41:33.644Z,5.46
2022-10-21T23:44:08.166Z,5.46
2022-10-21T23:46:41.140Z,5.48
2022-10-21T23:49:15.154Z,5.49
2022-10-21T23:51:48.199Z,5.48
2022-10-21T23:54:20.874Z,5.46
2022-10-21T23:56:53.746Z,5.45
2022-10-21T23:59:26.410Z,5.44
